createdAt,value
2018-05-17T00:00:40.111Z,14.40
2018-05-17T00:03:09.142Z,14.30
2018-05-17T00:05:42.005Z,14.20
2018-05-17T00:08:10.790Z,14.20
2018-05-17T00:10:43.635Z,14.10
2018-05-17T00:13:12.424Z,14.20
2018-05-17T00:15:48.982Z,14.10
2018-05-17T00:18:17.993Z,14.00
2018-05-17T00:20:50.166Z,14.00
2018-05-17T00:23:18.878Z,13.90
2018-05-17T00:25:52.408Z,13.90
2018-05-17T00:28:21.949Z,13.90
2018-05-17T00:30:58.813Z,13.80
2018-05-17T00:33:27.796Z,13.90
2018-05-17T00:35:58.010Z,13.80
2018-05-17T00:38:27.526Z,13.70
2018-05-17T00:41:00.626Z,13.70
2018-05-17T00:43:29.322Z,13.60
2018-05-17T00:46:05.358Z,13.60
2018-05-17T00:48:34.301Z,13.60
2018-05-17T00:51:06.985Z,13.60
2018-05-17T00:53:35.730Z,13.70
2018-05-17T00:56:09.598Z,13.70
2018-05-17T00:58:39.093Z,13.70
2018-05-17T01:01:12.044Z,13.70
2018-05-17T01:03:40.763Z,13.80
2018-05-17T01:06:17.225Z,13.80
2018-05-17T01:08:45.984Z,13.80
2018-05-17T01:11:16.352Z,13.80
2018-05-17T01:13:45.831Z,13.70
2018-05-17T01:16:18.626Z,13.70
2018-05-17T01:18:48.135Z,13.70
2018-05-17T01:21:24.692Z,13.70
2018-05-17T01:23:53.644Z,13.60
2018-05-17T01:26:25.469Z,13.50
2018-05-17T01:28:54.974Z,13.50
2018-05-17T01:31:28.017Z,13.40
2018-05-17T01:33:56.948Z,13.40
2018-05-17T01:36:29.154Z,13.30
2018-05-17T01:38:57.945Z,13.30
2018-05-17T01:41:33.828Z,13.30
2018-05-17T01:44:02.844Z,13.30
2018-05-17T01:46:33.635Z,13.10
2018-05-17T01:49:02.402Z,13.10
2018-05-17T01:51:34.251Z,13.10
2018-05-17T01:54:03.015Z,13.20
2018-05-17T01:56:36.168Z,13.20
2018-05-17T01:59:05.302Z,13.10
2018-05-17T02:01:41.996Z,13.20
2018-05-17T02:04:11.246Z,13.20
2018-05-17T02:06:41.003Z,13.10
2018-05-17T02:09:09.801Z,13.10
2018-05-17T02:11:45.925Z,13.10
2018-05-17T02:14:15.805Z,13.10
2018-05-17T02:16:46.687Z,13.00
2018-05-17T02:19:17.044Z,12.90
2018-05-17T02:21:54.255Z,12.80
2018-05-17T02:24:22.971Z,12.80
2018-05-17T02:26:52.933Z,12.70
2018-05-17T02:29:21.745Z,12.70
2018-05-17T02:31:56.150Z,12.60
2018-05-17T02:34:25.808Z,12.60
2018-05-17T02:36:58.604Z,12.60
2018-05-17T02:39:28.609Z,12.50
2018-05-17T02:42:01.119Z,12.50
2018-05-17T02:44:29.879Z,12.50
2018-05-17T02:47:06.006Z,12.40
2018-05-17T02:49:35.441Z,12.20
2018-05-17T02:52:07.616Z,12.20
2018-05-17T02:54:36.342Z,12.20
2018-05-17T02:57:10.043Z,12.10
2018-05-17T02:59:39.027Z,12.10
2018-05-17T03:02:15.369Z,12.10
2018-05-17T03:04:44.130Z,12.10
2018-05-17T03:07:16.072Z,12.00
2018-05-17T03:09:45.561Z,12.00
2018-05-17T03:12:18.164Z,12.00
2018-05-17T03:14:47.949Z,11.90
2018-05-17T03:17:20.629Z,11.90
2018-05-17T03:19:49.569Z,11.90
2018-05-17T03:22:25.830Z,11.90
2018-05-17T03:24:54.586Z,11.90
2018-05-17T03:27:24.425Z,11.70
2018-05-17T03:29:54.111Z,11.80
2018-05-17T03:32:26.982Z,11.80
2018-05-17T03:34:55.716Z,11.80
2018-05-17T03:37:28.450Z,11.90
2018-05-17T03:39:58.434Z,11.90
2018-05-17T03:42:34.689Z,11.90
2018-05-17T03:45:03.436Z,11.90
2018-05-17T03:47:32.937Z,12.00
2018-05-17T03:50:02.449Z,11.90
2018-05-17T03:52:35.280Z,11.90
2018-05-17T03:55:04.380Z,11.90
2018-05-17T03:57:40.170Z,11.90
2018-05-17T04:00:09.040Z,11.90
2018-05-17T04:06:00.562Z,11.80
2018-05-17T04:08:29.261Z,11.80
2018-05-17T04:10:58.750Z,11.70
2018-05-17T04:13:27.796Z,11.60
2018-05-17T04:15:56.536Z,11.60
2018-05-17T04:18:25.248Z,11.60
2018-05-17T04:20:54.387Z,11.50
2018-05-17T04:23:23.179Z,11.60
2018-05-17T04:25:51.927Z,11.60
2018-05-17T04:28:22.069Z,11.60
2018-05-17T04:30:53.962Z,11.70
2018-05-17T04:33:22.814Z,11.60
2018-05-17T04:35:59.539Z,11.60
2018-05-17T04:38:28.274Z,11.50
2018-05-17T04:41:00.246Z,11.60
2018-05-17T04:43:29.025Z,11.60
2018-05-17T04:46:06.002Z,11.60
2018-05-17T04:48:34.801Z,11.70
2018-05-17T04:51:05.552Z,11.70
2018-05-17T04:53:34.551Z,11.60
2018-05-17T04:56:10.639Z,11.60
2018-05-17T04:58:40.129Z,11.70
2018-05-17T05:01:11.388Z,11.60
2018-05-17T05:03:40.948Z,11.60
2018-05-17T05:06:13.783Z,11.60
2018-05-17T05:08:42.809Z,11.60
2018-05-17T05:11:15.454Z,11.60
2018-05-17T05:13:44.945Z,11.60
2018-05-17T05:16:17.940Z,11.60
2018-05-17T05:18:47.425Z,11.60
2018-05-17T05:21:20.210Z,11.60
2018-05-17T05:23:50.066Z,11.70
2018-05-17T05:26:22.661Z,11.70
2018-05-17T05:28:51.489Z,11.80
2018-05-17T05:31:24.698Z,11.80
2018-05-17T05:33:54.202Z,11.80
2018-05-17T05:36:27.067Z,11.80
2018-05-17T05:38:56.972Z,11.80
2018-05-17T05:41:29.730Z,11.90
2018-05-17T05:43:58.549Z,11.90
2018-05-17T05:46:35.480Z,11.80
2018-05-17T05:49:04.353Z,11.90
2018-05-17T05:51:33.160Z,11.90
2018-05-17T05:54:02.699Z,11.90
2018-05-17T05:56:35.841Z,11.90
2018-05-17T05:59:04.649Z,11.90
2018-05-17T06:01:40.758Z,11.90
2018-05-17T06:04:10.350Z,12.00
2018-05-17T06:06:39.966Z,12.00
2018-05-17T06:09:09.882Z,12.10
2018-05-17T06:11:45.866Z,12.10
2018-05-17T06:14:14.647Z,12.00
2018-05-17T06:16:45.180Z,12.00
2018-05-17T06:19:13.948Z,12.00
2018-05-17T06:21:50.320Z,12.00
2018-05-17T06:24:19.061Z,12.00
2018-05-17T06:26:50.099Z,12.10
2018-05-17T06:29:19.255Z,12.20
2018-05-17T06:31:57.444Z,12.10
2018-05-17T06:34:27.987Z,12.20
2018-05-17T06:36:56.873Z,12.10
2018-05-17T06:39:25.685Z,12.20
2018-05-17T06:41:58.181Z,12.30
2018-05-17T06:44:27.303Z,12.30
2018-05-17T06:47:01.066Z,12.30
2018-05-17T06:49:29.868Z,12.30
2018-05-17T06:52:06.410Z,12.30
2018-05-17T06:54:35.426Z,12.30
2018-05-17T06:57:06.203Z,12.30
2018-05-17T06:59:35.071Z,12.30
2018-05-17T07:02:11.670Z,12.20
2018-05-17T07:04:41.239Z,12.30
2018-05-17T07:07:13.866Z,12.30
2018-05-17T07:09:42.973Z,12.40
2018-05-17T07:12:15.192Z,12.50
2018-05-17T07:14:43.961Z,12.50
2018-05-17T07:17:20.095Z,12.60
2018-05-17T07:19:48.867Z,12.70
2018-05-17T07:22:18.361Z,12.70
2018-05-17T07:24:47.145Z,12.80
2018-05-17T07:27:21.221Z,12.80
2018-05-17T07:29:50.327Z,12.80
2018-05-17T07:32:23.162Z,13.00
2018-05-17T07:34:51.921Z,13.00
2018-05-17T07:37:28.783Z,13.00
2018-05-17T07:39:58.469Z,13.00
2018-05-17T07:43:57.807Z,13.00
2018-05-17T07:46:30.131Z,13.10
2018-05-17T07:48:58.910Z,13.10
2018-05-17T07:51:35.567Z,13.20
2018-05-17T07:54:04.406Z,13.30
2018-05-17T07:56:36.233Z,13.30
2018-05-17T07:59:06.364Z,13.40
2018-05-17T08:01:38.623Z,13.40
2018-05-17T08:04:07.455Z,13.40
2018-05-17T08:06:39.713Z,13.20
2018-05-17T08:09:09.294Z,13.20
2018-05-17T08:11:41.656Z,13.20
2018-05-17T08:14:11.730Z,13.20
2018-05-17T08:16:48.302Z,13.10
2018-05-17T08:19:17.108Z,13.00
2018-05-17T08:21:46.950Z,13.00
2018-05-17T08:24:15.750Z,13.10
2018-05-17T08:26:52.505Z,13.10
2018-05-17T08:29:21.578Z,13.30
2018-05-17T08:31:52.150Z,13.30
2018-05-17T08:34:20.960Z,13.40
2018-05-17T08:36:57.929Z,13.80
2018-05-17T08:39:26.785Z,13.80
2018-05-17T08:41:56.048Z,14.00
2018-05-17T08:44:25.263Z,14.00
2018-05-17T08:47:01.721Z,14.20
2018-05-17T08:49:30.476Z,14.20
2018-05-17T08:52:03.345Z,14.40
2018-05-17T08:54:33.204Z,14.70
2018-05-17T08:57:05.454Z,14.60
2018-05-17T08:59:34.633Z,14.90
2018-05-17T09:02:07.950Z,15.40
2018-05-17T09:04:36.796Z,15.40
2018-05-17T09:07:14.348Z,15.70
2018-05-17T09:09:43.226Z,15.70
2018-05-17T09:12:13.952Z,15.60
2018-05-17T09:14:43.075Z,15.70
2018-05-17T09:17:19.282Z,16.00
2018-05-17T09:19:48.861Z,16.70
2018-05-17T09:22:18.244Z,16.70
2018-05-17T09:24:47.112Z,17.00
2018-05-17T09:27:23.580Z,17.40
2018-05-17T09:29:52.672Z,17.40
2018-05-17T09:32:22.017Z,17.70
2018-05-17T09:34:50.820Z,17.80
2018-05-17T09:37:27.411Z,18.00
2018-05-17T09:39:57.081Z,18.70
2018-05-17T09:42:26.553Z,18.70
2018-05-17T09:44:55.384Z,19.10
2018-05-17T09:47:31.498Z,18.80
2018-05-17T09:50:00.296Z,19.10
2018-05-17T09:52:30.995Z,19.50
2018-05-17T09:54:59.973Z,19.80
2018-05-17T09:57:36.657Z,20.00
2018-05-17T10:00:05.916Z,20.10
2018-05-17T10:02:35.948Z,20.30
2018-05-17T10:05:05.872Z,20.50
2018-05-17T10:07:39.121Z,20.50
2018-05-17T10:10:08.009Z,20.70
2018-05-17T10:12:44.256Z,20.70
2018-05-17T10:15:13.278Z,20.40
2018-05-17T10:17:45.633Z,20.40
2018-05-17T10:20:14.497Z,20.60
2018-05-17T10:22:46.665Z,20.70
2018-05-17T10:25:15.473Z,21.10
2018-05-17T10:27:52.120Z,21.10
2018-05-17T10:32:53.738Z,21.30
2018-05-17T10:35:23.150Z,21.40
2018-05-17T10:37:56.421Z,21.40
2018-05-17T10:40:26.012Z,21.90
2018-05-17T10:42:55.599Z,21.90
2018-05-17T10:45:24.405Z,22.00
2018-05-17T10:48:01.059Z,22.00
2018-05-17T10:50:30.136Z,22.20
2018-05-17T10:53:02.671Z,22.30
2018-05-17T10:55:31.484Z,22.40
2018-05-17T10:58:03.785Z,22.10
2018-05-17T11:00:32.563Z,22.20
2018-05-17T11:03:06.380Z,22.30
2018-05-17T11:05:36.321Z,22.50
2018-05-17T11:08:12.378Z,22.50
2018-05-17T11:10:41.396Z,22.60
2018-05-17T11:13:13.932Z,22.30
2018-05-17T11:15:42.737Z,22.40
2018-05-17T11:18:15.057Z,22.40
2018-05-17T11:20:44.656Z,22.50
2018-05-17T11:23:17.323Z,22.70
2018-05-17T11:25:47.254Z,22.80
2018-05-17T11:28:20.060Z,22.70
2018-05-17T11:30:49.715Z,22.70
2018-05-17T11:33:22.663Z,22.90
2018-05-17T11:38:14.325Z,22.60
2018-05-17T11:40:43.458Z,22.70
2018-05-17T11:43:13.296Z,22.90
2018-05-17T11:45:42.376Z,22.90
2018-05-17T11:48:12.249Z,23.00
2018-05-17T11:50:41.392Z,23.00
2018-05-17T11:53:10.990Z,22.90
2018-05-17T11:55:40.438Z,22.90
2018-05-17T11:58:09.406Z,23.10
2018-05-17T12:00:38.393Z,23.20
2018-05-17T12:03:07.479Z,23.10
2018-05-17T12:05:36.733Z,23.10
2018-05-17T12:08:05.638Z,23.40
2018-05-17T12:10:38.697Z,23.60
2018-05-17T12:13:07.599Z,23.60
2018-05-17T12:15:43.865Z,23.50
2018-05-17T12:18:12.980Z,23.40
2018-05-17T12:20:45.363Z,23.40
2018-05-17T12:23:14.227Z,23.40
2018-05-17T12:25:47.496Z,23.50
2018-05-17T12:28:16.408Z,23.60
2018-05-17T12:30:53.432Z,23.50
2018-05-17T12:33:22.290Z,23.50
2018-05-17T12:35:53.031Z,23.60
2018-05-17T12:38:22.903Z,23.80
2018-05-17T12:40:58.816Z,23.80
2018-05-17T12:43:28.405Z,23.90
2018-05-17T12:45:58.221Z,24.10
2018-05-17T12:48:27.139Z,24.00
2018-05-17T12:51:04.358Z,24.00
2018-05-17T12:53:33.609Z,24.00
2018-05-17T12:56:04.423Z,24.20
2018-05-17T12:58:33.502Z,23.90
2018-05-17T13:01:07.443Z,23.50
2018-05-17T13:03:36.290Z,23.30
2018-05-17T13:06:13.239Z,23.40
2018-05-17T13:08:42.315Z,23.40
2018-05-17T13:11:12.923Z,23.30
2018-05-17T13:13:41.779Z,23.40
2018-05-17T13:16:19.485Z,23.50
2018-05-17T13:18:49.049Z,23.60
2018-05-17T13:21:17.879Z,23.60
2018-05-17T13:23:47.061Z,23.80
2018-05-17T13:26:19.860Z,23.80
2018-05-17T13:28:49.484Z,23.70
2018-05-17T13:31:22.079Z,23.70
2018-05-17T13:33:50.907Z,23.60
2018-05-17T13:36:27.006Z,23.80
2018-05-17T13:38:56.049Z,23.70
2018-05-17T13:41:26.528Z,23.80
2018-05-17T13:43:56.206Z,23.40
2018-05-17T13:46:32.263Z,23.40
2018-05-17T13:49:01.233Z,23.50
2018-05-17T13:51:31.933Z,23.50
2018-05-17T13:54:01.061Z,23.40
2018-05-17T13:56:33.208Z,23.60
2018-05-17T13:59:02.065Z,23.70
2018-05-17T14:01:38.864Z,23.30
2018-05-17T14:04:07.751Z,23.30
2018-05-17T14:06:38.514Z,23.10
2018-05-17T14:09:07.998Z,23.10
2018-05-17T14:15:12.327Z,23.40
2018-05-17T14:17:44.556Z,23.40
2018-05-17T14:20:13.530Z,23.20
2018-05-17T14:22:50.151Z,23.40
2018-05-17T14:25:19.764Z,23.30
2018-05-17T14:27:49.457Z,23.30
2018-05-17T14:30:19.157Z,23.40
2018-05-17T14:32:56.160Z,23.40
2018-05-17T14:35:25.305Z,23.40
2018-05-17T14:37:54.542Z,23.30
2018-05-17T14:40:24.153Z,23.00
2018-05-17T14:42:57.833Z,23.10
2018-05-17T14:45:27.494Z,23.10
2018-05-17T14:48:00.172Z,23.10
2018-05-17T14:50:29.280Z,22.80
2018-05-17T14:53:02.746Z,22.50
2018-05-17T14:55:31.586Z,22.50
2018-05-17T14:58:07.897Z,22.50
2018-05-17T15:00:36.670Z,22.40
2018-05-17T15:03:10.012Z,22.50
2018-05-17T15:05:38.920Z,22.50
2018-05-17T15:08:12.272Z,22.60
2018-05-17T15:10:41.121Z,22.50
2018-05-17T15:13:14.833Z,22.70
2018-05-17T15:15:43.789Z,22.70
2018-05-17T15:18:19.699Z,22.70
2018-05-17T15:20:49.202Z,22.60
2018-05-17T15:23:19.244Z,22.40
2018-05-17T15:25:48.384Z,22.40
2018-05-17T15:28:25.592Z,22.50
2018-05-17T15:30:54.594Z,22.30
2018-05-17T15:33:26.342Z,22.20
2018-05-17T15:35:56.536Z,22.00
2018-05-17T15:38:26.172Z,22.00
2018-05-17T15:40:54.933Z,21.90
2018-05-17T15:43:31.309Z,21.80
2018-05-17T15:46:01.851Z,21.70
2018-05-17T15:48:30.847Z,21.70
2018-05-17T15:51:00.517Z,21.70
2018-05-17T15:53:32.078Z,21.60
2018-05-17T15:56:01.150Z,21.60
2018-05-17T15:58:37.699Z,21.50
2018-05-17T16:01:06.571Z,21.40
2018-05-17T16:03:39.165Z,21.30
2018-05-17T16:06:08.334Z,21.20
2018-05-17T16:08:41.921Z,21.10
2018-05-17T16:11:11.558Z,21.00
2018-05-17T16:13:42.297Z,21.00
2018-05-17T16:16:11.143Z,20.90
2018-05-17T16:18:45.720Z,20.90
2018-05-17T16:21:14.598Z,20.80
2018-05-17T16:23:52.237Z,20.70
2018-05-17T16:26:22.112Z,20.50
2018-05-17T16:28:51.583Z,20.50
2018-05-17T16:31:20.800Z,20.50
2018-05-17T16:33:58.338Z,20.40
2018-05-17T16:36:27.234Z,20.40
2018-05-17T16:38:59.987Z,20.30
2018-05-17T16:41:28.948Z,20.20
2018-05-17T16:44:00.732Z,20.10
2018-05-17T16:46:29.595Z,20.00
2018-05-17T16:49:06.437Z,19.90
2018-05-17T16:51:36.312Z,19.80
2018-05-17T16:54:06.156Z,19.70
2018-05-17T16:56:35.083Z,19.70
2018-05-17T16:59:11.373Z,19.70
2018-05-17T17:01:40.249Z,19.60
2018-05-17T17:04:12.971Z,19.60
2018-05-17T17:06:42.175Z,19.50
2018-05-17T17:09:18.504Z,19.50
2018-05-17T17:11:47.405Z,19.40
2018-05-17T17:14:17.115Z,19.40
2018-05-17T17:16:45.924Z,19.30
2018-05-17T17:19:19.149Z,19.20
2018-05-17T17:21:48.014Z,19.20
2018-05-17T17:24:24.957Z,19.00
2018-05-17T17:26:54.334Z,19.00
2018-05-17T17:29:24.359Z,19.00
2018-05-17T17:31:53.229Z,18.90
2018-05-17T17:34:30.305Z,18.90
2018-05-17T17:36:59.133Z,18.90
2018-05-17T17:39:29.450Z,18.80
2018-05-17T17:41:58.594Z,18.70
2018-05-17T17:44:30.350Z,18.40
2018-05-17T17:46:59.965Z,18.40
2018-05-17T17:49:36.746Z,18.40
2018-05-17T17:52:05.569Z,18.30
2018-05-17T17:54:38.125Z,18.30
2018-05-17T17:57:07.270Z,18.20
2018-05-17T17:59:39.210Z,18.20
2018-05-17T18:02:08.015Z,18.10
2018-05-17T18:04:40.742Z,18.10
2018-05-17T18:07:10.353Z,18.00
2018-05-17T18:09:42.779Z,17.70
2018-05-17T18:12:12.099Z,17.60
2018-05-17T18:14:45.406Z,17.60
2018-05-17T18:17:15.110Z,17.60
2018-05-17T18:19:51.547Z,17.60
2018-05-17T18:22:20.432Z,17.60
2018-05-17T18:24:56.721Z,17.50
2018-05-17T18:27:25.781Z,17.50
2018-05-17T18:29:54.720Z,17.40
2018-05-17T18:32:23.854Z,17.40
2018-05-17T18:35:00.305Z,17.40
2018-05-17T18:37:29.153Z,17.20
2018-05-17T18:40:00.575Z,17.10
2018-05-17T18:42:29.933Z,17.10
2018-05-17T18:45:05.996Z,17.10
2018-05-17T18:47:35.309Z,17.00
2018-05-17T18:50:07.355Z,17.00
2018-05-17T18:52:36.224Z,16.90
2018-05-17T18:55:09.785Z,16.70
2018-05-17T18:57:38.698Z,16.70
2018-05-17T19:00:16.381Z,16.50
2018-05-17T19:02:45.292Z,16.50
2018-05-17T19:05:15.125Z,16.50
2018-05-17T19:07:45.417Z,16.50
2018-05-17T19:10:16.943Z,16.30
2018-05-17T19:12:45.777Z,16.30
2018-05-17T19:15:22.545Z,16.20
2018-05-17T19:17:52.202Z,16.00
2018-05-17T19:20:22.752Z,16.00
2018-05-17T19:22:51.957Z,15.90
2018-05-17T19:25:28.436Z,15.90
2018-05-17T19:27:58.142Z,15.90
2018-05-17T19:30:28.077Z,15.70
2018-05-17T19:32:57.669Z,15.80
2018-05-17T19:35:34.564Z,15.70
2018-05-17T19:38:03.453Z,15.70
2018-05-17T19:40:32.624Z,15.70
2018-05-17T19:43:02.881Z,15.60
2018-05-17T19:45:34.869Z,15.60
2018-05-17T19:48:03.880Z,15.50
2018-05-17T19:50:36.576Z,15.40
2018-05-17T19:53:05.542Z,15.20
2018-05-17T19:55:42.056Z,15.10
2018-05-17T19:58:11.340Z,15.10
2018-05-17T20:00:41.076Z,15.00
2018-05-17T20:03:09.989Z,15.00
2018-05-17T20:05:44.221Z,15.00
2018-05-17T20:08:13.125Z,15.00
2018-05-17T20:10:49.025Z,14.90
2018-05-17T20:13:18.124Z,14.90
2018-05-17T20:15:48.658Z,14.90
2018-05-17T20:18:17.560Z,14.90
2018-05-17T20:20:52.178Z,14.80
2018-05-17T20:23:21.017Z,14.80
2018-05-17T20:25:56.954Z,14.60
2018-05-17T20:28:26.111Z,14.60
2018-05-17T20:30:58.503Z,14.50
2018-05-17T20:33:27.453Z,14.40
2018-05-17T20:36:00.588Z,14.40
2018-05-17T20:38:29.392Z,14.30
2018-05-17T20:41:01.703Z,14.30
2018-05-17T20:43:31.049Z,14.20
2018-05-17T20:46:07.099Z,14.10
2018-05-17T20:48:36.257Z,14.10
2018-05-17T20:51:06.648Z,14.10
2018-05-17T20:53:35.552Z,14.00
2018-05-17T20:56:12.891Z,14.00
2018-05-17T20:58:41.890Z,13.80
2018-05-17T21:01:14.519Z,13.80
2018-05-17T21:03:44.163Z,13.70
2018-05-17T21:06:16.081Z,13.70
2018-05-17T21:08:45.115Z,13.70
2018-05-17T21:11:21.171Z,13.60
2018-05-17T21:13:50.447Z,13.60
2018-05-17T21:16:20.511Z,13.40
2018-05-17T21:18:50.205Z,13.30
2018-05-17T21:21:23.506Z,13.30
2018-05-17T21:23:52.411Z,13.30
2018-05-17T21:26:24.470Z,13.10
2018-05-17T21:28:53.663Z,13.10
2018-05-17T21:31:33.013Z,13.00
2018-05-17T21:34:03.638Z,13.00
2018-05-17T21:36:32.546Z,13.00
2018-05-17T21:39:01.646Z,13.00
2018-05-17T21:41:31.319Z,13.00
2018-05-17T21:44:00.312Z,13.00
2018-05-17T21:46:36.780Z,13.00
2018-05-17T21:49:06.064Z,12.90
2018-05-17T21:51:35.905Z,12.80
2018-05-17T21:54:06.043Z,12.80
2018-05-17T21:56:38.090Z,12.80
2018-05-17T21:59:07.048Z,12.70
2018-05-17T22:01:40.944Z,12.70
2018-05-17T22:04:12.147Z,12.60
2018-05-17T22:06:44.680Z,12.60
2018-05-17T22:09:17.790Z,12.50
2018-05-17T22:11:47.173Z,12.60
2018-05-17T22:14:17.098Z,12.50
2018-05-17T22:16:48.631Z,12.50
2018-05-17T22:19:18.946Z,12.40
2018-05-17T22:21:53.395Z,12.40
2018-05-17T22:24:29.240Z,12.40
2018-05-17T22:26:58.720Z,12.40
2018-05-17T22:29:27.856Z,12.40
2018-05-17T22:31:56.931Z,12.40
2018-05-17T22:34:27.235Z,12.40
2018-05-17T22:36:59.987Z,12.40
2018-05-17T22:39:29.562Z,12.30
2018-05-17T22:42:01.527Z,12.20
2018-05-17T22:44:30.371Z,12.20
2018-05-17T22:47:03.593Z,12.10
2018-05-17T22:49:32.621Z,12.10
2018-05-17T22:52:10.328Z,12.10
2018-05-17T22:54:39.927Z,12.10
2018-05-17T22:57:13.366Z,11.90
2018-05-17T22:59:42.294Z,11.90
2018-05-17T23:02:14.463Z,11.90
2018-05-17T23:04:43.890Z,11.90
2018-05-17T23:07:17.408Z,11.80
2018-05-17T23:09:46.283Z,11.80
2018-05-17T23:12:20.320Z,11.80
2018-05-17T23:14:49.248Z,11.70
2018-05-17T23:17:20.645Z,11.70
2018-05-17T23:19:50.276Z,11.70
2018-05-17T23:22:31.097Z,11.70
2018-05-17T23:25:00.666Z,11.70
2018-05-17T23:27:29.857Z,11.70
2018-05-17T23:29:58.688Z,11.70
2018-05-17T23:32:28.297Z,11.70
2018-05-17T23:34:58.122Z,11.80
2018-05-17T23:37:29.038Z,11.70
2018-05-17T23:40:06.013Z,11.80
2018-05-17T23:42:35.046Z,11.80
2018-05-17T23:45:04.365Z,11.90
2018-05-17T23:47:33.493Z,11.90
2018-05-17T23:50:02.255Z,11.90
2018-05-17T23:52:38.353Z,11.90
2018-05-17T23:55:07.161Z,11.90
2018-05-17T23:57:37.143Z,12.00
